createdAt,value
2023-01-23T00:04:32.333Z,13.47
2023-01-23T00:09:34.010Z,15.20
2023-01-23T00:14:35.719Z,13.70
2023-01-23T00:19:37.520Z,14.43
2023-01-23T00:24:39.134Z,14.00
2023-01-23T00:29:40.818Z,14.17
2023-01-23T00:34:42.504Z,13.33
2023-01-23T00:39:45.530Z,14.47
2023-01-23T00:44:47.259Z,15.13
2023-01-23T00:49:48.856Z,14.70
2023-01-23T00:54:50.604Z,14.77
2023-01-23T00:59:52.308Z,14.63
2023-01-23T01:04:53.888Z,15.00
2023-01-23T01:09:55.542Z,15.20
2023-01-23T01:14:57.243Z,16.30
2023-01-23T01:19:58.917Z,15.13
2023-01-23T01:25:00.543Z,15.20
2023-01-23T01:30:02.368Z,14.50
2023-01-23T01:35:07.048Z,14.03
2023-01-23T01:40:13.592Z,13.40
2023-01-23T01:45:52.705Z,15.23
2023-01-23T01:50:54.585Z,14.27
2023-01-23T01:55:57.543Z,16.43
2023-01-23T02:00:59.219Z,16.07
2023-01-23T02:06:01.019Z,15.37
2023-01-23T02:11:03.537Z,14.53
2023-01-23T02:16:09.515Z,15.80
2023-01-23T02:21:13.745Z,15.23
2023-01-23T02:26:22.314Z,14.07
2023-01-23T02:31:24.154Z,14.50
2023-01-23T02:36:29.818Z,14.27
2023-01-23T02:41:43.926Z,13.43
2023-01-23T02:46:45.768Z,12.83
2023-01-23T02:51:47.693Z,12.87
2023-01-23T02:56:49.722Z,13.80
2023-01-23T03:01:51.547Z,13.40
2023-01-23T03:06:53.187Z,13.70
2023-01-23T03:11:55.037Z,14.03
2023-01-23T03:16:56.693Z,14.03
2023-01-23T03:21:58.323Z,14.10
2023-01-23T03:27:00.020Z,13.57
2023-01-23T03:32:02.460Z,13.73
2023-01-23T03:37:04.961Z,13.77
2023-01-23T03:42:06.781Z,14.20
2023-01-23T03:47:08.629Z,14.53
2023-01-23T03:52:10.313Z,15.33
2023-01-23T03:57:11.928Z,16.70
2023-01-23T04:02:13.544Z,15.93
2023-01-23T04:07:15.202Z,16.77
2023-01-23T04:12:17.312Z,15.87
2023-01-23T04:17:18.997Z,14.17
2023-01-23T04:22:20.751Z,14.67
2023-01-23T04:27:22.469Z,14.80
2023-01-23T04:32:25.417Z,14.33
2023-01-23T04:37:27.124Z,14.73
2023-01-23T04:42:28.723Z,13.70
2023-01-23T19:07:03.686Z,9.83
2023-01-23T19:12:30.219Z,11.57
2023-01-23T19:18:03.438Z,11.27
2023-01-23T19:23:13.735Z,11.33
2023-01-23T19:28:16.101Z,10.90
2023-01-23T19:33:18.949Z,11.70
2023-01-23T19:38:22.621Z,10.50
2023-01-23T19:43:25.271Z,11.30
2023-01-23T19:48:27.452Z,11.07
2023-01-23T19:53:29.030Z,11.60
2023-01-23T19:58:32.194Z,11.23
2023-01-23T20:03:35.650Z,10.80
2023-01-23T20:08:37.408Z,11.63
2023-01-23T20:13:42.769Z,13.17
2023-01-23T20:18:48.064Z,10.07
2023-01-23T20:23:50.681Z,11.20
2023-01-23T20:28:56.227Z,10.37
2023-01-23T20:33:57.808Z,10.23
2023-01-23T20:38:59.581Z,10.67
2023-01-23T20:44:01.197Z,10.50
2023-01-23T20:49:02.902Z,9.97
2023-01-23T20:54:04.726Z,11.73
2023-01-23T20:59:18.655Z,9.73
2023-01-23T21:04:21.388Z,10.57
2023-01-23T21:09:23.925Z,11.33
2023-01-23T21:14:25.592Z,11.33
2023-01-23T21:19:27.522Z,11.93
2023-01-23T21:24:29.236Z,11.77
2023-01-23T21:29:31.824Z,12.47
2023-01-23T21:34:33.461Z,10.33
2023-01-23T21:39:35.064Z,14.83
2023-01-23T21:44:36.745Z,10.90
2023-01-23T21:49:38.336Z,11.77
2023-01-23T21:54:41.898Z,10.87
2023-01-23T22:00:03.513Z,11.57
2023-01-23T22:05:05.506Z,9.80
2023-01-23T22:10:07.964Z,11.70
2023-01-23T22:15:10.157Z,10.63
2023-01-23T22:20:13.049Z,11.00
2023-01-23T22:25:14.796Z,10.47
2023-01-23T22:30:16.673Z,11.00
2023-01-23T22:35:18.446Z,11.00
2023-01-23T22:40:20.362Z,10.83
2023-01-23T22:45:22.447Z,12.20
2023-01-23T22:50:24.776Z,12.60
2023-01-23T22:55:26.496Z,11.17
2023-01-23T23:00:28.172Z,10.93
2023-01-23T23:05:29.911Z,11.47
2023-01-23T23:10:31.630Z,11.57
2023-01-23T23:15:35.522Z,12.37
2023-01-23T23:20:37.214Z,14.00
2023-01-23T23:25:38.936Z,11.93
2023-01-23T23:30:40.627Z,13.10
2023-01-23T23:35:43.099Z,14.67
2023-01-23T23:40:53.154Z,14.50
2023-01-23T23:45:57.319Z,18.50
2023-01-23T23:51:04.639Z,12.07
2023-01-23T23:56:07.452Z,13.07
